createdAt,value
2022-12-25T00:01:41.236Z,93.60
2022-12-25T00:04:08.089Z,93.40
2022-12-25T00:06:36.037Z,93.00
2022-12-25T00:09:02.854Z,92.50
2022-12-25T00:11:29.642Z,92.00
2022-12-25T00:13:56.502Z,91.90
2022-12-25T00:16:24.229Z,91.80
2022-12-25T00:18:51.572Z,91.60
2022-12-25T00:21:19.071Z,91.70
2022-12-25T00:23:45.919Z,91.80
2022-12-25T00:26:14.383Z,92.00
2022-12-25T00:28:41.378Z,92.30
2022-12-25T00:31:12.468Z,92.40
2022-12-25T00:33:40.247Z,92.60
2022-12-25T00:36:07.871Z,92.70
2022-12-25T00:38:35.760Z,93.00
2022-12-25T00:41:06.247Z,93.00
2022-12-25T00:43:33.229Z,93.10
2022-12-25T00:46:01.651Z,93.20
2022-12-25T00:48:29.089Z,93.40
2022-12-25T00:50:57.085Z,93.30
2022-12-25T00:53:24.725Z,93.40
2022-12-25T00:55:54.205Z,93.40
2022-12-25T00:58:21.106Z,93.40
2022-12-25T01:00:49.212Z,93.40
2022-12-25T01:03:16.935Z,93.70
2022-12-25T01:05:44.373Z,93.40
2022-12-25T01:08:11.294Z,93.00
2022-12-25T01:10:38.122Z,92.60
2022-12-25T01:13:05.092Z,92.20
2022-12-25T01:15:31.951Z,92.10
2022-12-25T01:18:00.664Z,91.90
2022-12-25T01:20:30.739Z,91.80
2022-12-25T01:22:57.527Z,91.70
2022-12-25T01:25:24.272Z,91.90
2022-12-25T01:27:51.127Z,92.00
2022-12-25T01:30:18.037Z,92.30
2022-12-25T01:32:44.777Z,92.50
2022-12-25T01:35:12.167Z,92.60
2022-12-25T01:37:39.227Z,92.80
2022-12-25T01:40:06.411Z,93.00
2022-12-25T01:42:33.176Z,93.10
2022-12-25T01:45:18.564Z,93.20
2022-12-25T01:47:45.363Z,93.20
2022-12-25T01:50:12.343Z,93.30
2022-12-25T01:52:41.833Z,93.40
2022-12-25T01:55:18.893Z,93.50
2022-12-25T01:57:46.069Z,93.40
2022-12-25T02:00:13.210Z,93.40
2022-12-25T02:02:40.872Z,93.70
2022-12-25T02:05:13.915Z,93.30
2022-12-25T02:07:41.750Z,92.90
2022-12-25T02:10:23.193Z,92.50
2022-12-25T02:12:50.202Z,92.30
2022-12-25T02:15:18.730Z,92.10
2022-12-25T02:18:04.019Z,92.00
2022-12-25T02:20:41.203Z,91.90
2022-12-25T02:23:10.702Z,92.00
2022-12-25T02:25:49.611Z,92.10
2022-12-25T02:28:45.716Z,92.40
2022-12-25T02:31:12.823Z,92.60
2022-12-25T02:34:04.803Z,92.80
2022-12-25T02:36:43.285Z,93.00
2022-12-25T02:39:32.823Z,93.10
2022-12-25T02:42:02.539Z,93.20
2022-12-25T02:44:48.466Z,93.30
2022-12-25T02:47:45.558Z,93.40
2022-12-25T02:50:33.206Z,93.50
2022-12-25T02:53:19.303Z,93.50
2022-12-25T02:56:05.270Z,93.60
2022-12-25T02:58:50.885Z,93.60
2022-12-25T03:01:38.369Z,93.70
2022-12-25T03:04:26.486Z,93.60
2022-12-25T03:07:06.132Z,93.60
2022-12-25T03:09:56.989Z,93.70
2022-12-25T03:12:44.007Z,93.40
2022-12-25T03:15:31.232Z,92.80
2022-12-25T03:18:00.689Z,92.50
2022-12-25T03:20:47.475Z,92.30
2022-12-25T03:23:54.415Z,92.10
2022-12-25T03:26:39.763Z,92.00
2022-12-25T03:29:06.684Z,91.90
2022-12-25T03:31:39.962Z,92.00
2022-12-25T03:34:28.346Z,92.10
2022-12-25T03:37:22.664Z,92.40
2022-12-25T03:39:54.999Z,92.70
2022-12-25T03:42:48.809Z,92.90
2022-12-25T03:45:44.218Z,93.10
2022-12-25T03:48:30.186Z,93.20
2022-12-25T03:51:20.001Z,93.30
2022-12-25T03:54:07.105Z,93.40
2022-12-25T03:56:54.010Z,93.50
2022-12-25T03:59:40.673Z,93.60
2022-12-25T04:02:26.561Z,93.60
2022-12-25T04:05:11.983Z,93.60
2022-12-25T04:07:58.015Z,93.80
2022-12-25T04:10:43.602Z,93.70
2022-12-25T04:13:28.849Z,93.00
2022-12-25T04:16:14.389Z,92.50
2022-12-25T04:19:00.240Z,92.30
2022-12-25T04:21:45.509Z,92.20
2022-12-25T04:24:30.988Z,91.90
2022-12-25T04:27:16.223Z,91.90
2022-12-25T04:30:01.492Z,92.00
2022-12-25T04:32:46.773Z,92.30
2022-12-25T04:35:32.204Z,92.60
2022-12-25T04:37:59.078Z,92.80
2022-12-25T04:40:25.823Z,92.90
2022-12-25T04:42:53.028Z,93.10
2022-12-25T04:45:19.809Z,93.20
2022-12-25T04:47:46.563Z,93.30
2022-12-25T04:50:13.458Z,93.40
2022-12-25T04:52:40.908Z,93.40
2022-12-25T04:55:08.246Z,93.50
2022-12-25T04:57:35.311Z,93.60
2022-12-25T05:00:02.139Z,93.60
2022-12-25T05:02:29.299Z,93.70
2022-12-25T05:04:56.303Z,93.70
2022-12-25T05:07:23.071Z,93.90
2022-12-25T05:09:49.775Z,93.50
2022-12-25T05:12:16.584Z,93.00
2022-12-25T05:14:43.383Z,92.60
2022-12-25T05:17:10.133Z,92.30
2022-12-25T05:19:36.925Z,92.10
2022-12-25T05:22:03.707Z,91.90
2022-12-25T05:24:30.491Z,91.80
2022-12-25T05:26:57.545Z,91.90
2022-12-25T05:29:24.258Z,92.00
2022-12-25T05:31:51.124Z,92.30
2022-12-25T05:34:18.112Z,92.50
2022-12-25T05:36:44.855Z,92.80
2022-12-25T05:39:11.617Z,92.80
2022-12-25T05:41:38.422Z,93.00
2022-12-25T05:44:05.289Z,93.20
2022-12-25T05:46:32.142Z,93.30
2022-12-25T05:48:58.982Z,93.30
2022-12-25T05:51:26.233Z,93.40
2022-12-25T05:53:52.965Z,93.50
2022-12-25T05:56:19.791Z,93.50
2022-12-25T05:58:46.514Z,93.60
2022-12-25T06:01:19.670Z,93.70
2022-12-25T06:03:46.640Z,93.70
2022-12-25T06:06:13.781Z,93.80
2022-12-25T06:08:41.107Z,93.70
2022-12-25T06:11:08.679Z,93.30
2022-12-25T06:13:35.944Z,92.70
2022-12-25T06:16:10.088Z,92.50
2022-12-25T06:18:37.596Z,92.30
2022-12-25T06:21:11.586Z,91.90
2022-12-25T06:23:38.775Z,91.90
2022-12-25T06:26:06.990Z,91.90
2022-12-25T06:28:33.766Z,92.10
2022-12-25T06:31:05.888Z,92.40
2022-12-25T06:33:32.648Z,92.80
2022-12-25T06:35:59.650Z,92.80
2022-12-25T06:38:28.143Z,92.90
2022-12-25T06:40:54.860Z,93.10
2022-12-25T06:43:21.728Z,93.20
2022-12-25T06:45:50.107Z,93.30
2022-12-25T06:48:16.875Z,93.40
2022-12-25T06:50:44.373Z,93.40
2022-12-25T06:53:11.234Z,93.60
2022-12-25T06:55:37.920Z,93.60
2022-12-25T06:58:04.763Z,93.60
2022-12-25T07:00:31.527Z,93.60
2022-12-25T07:02:58.440Z,93.60
2022-12-25T07:05:25.434Z,93.80
2022-12-25T07:07:52.164Z,93.50
2022-12-25T07:10:18.910Z,92.90
2022-12-25T07:12:45.752Z,92.40
2022-12-25T07:15:12.482Z,92.20
2022-12-25T07:17:39.324Z,92.00
2022-12-25T07:20:07.088Z,91.90
2022-12-25T07:22:33.836Z,91.90
2022-12-25T07:25:00.575Z,92.00
2022-12-25T07:27:27.420Z,92.00
2022-12-25T07:29:54.133Z,92.30
2022-12-25T07:32:20.867Z,92.60
2022-12-25T07:34:47.668Z,92.70
2022-12-25T07:37:14.384Z,92.90
2022-12-25T07:39:41.182Z,93.10
2022-12-25T07:42:08.066Z,93.20
2022-12-25T07:44:34.785Z,93.30
2022-12-25T07:47:01.602Z,93.60
2022-12-25T07:49:28.595Z,93.80
2022-12-25T07:51:55.486Z,93.70
2022-12-25T07:54:22.299Z,93.70
2022-12-25T07:56:52.848Z,93.70
2022-12-25T07:59:20.027Z,93.60
2022-12-25T08:01:46.895Z,93.60
2022-12-25T08:04:14.013Z,93.00
2022-12-25T08:06:40.764Z,92.50
2022-12-25T08:09:09.481Z,92.00
2022-12-25T08:11:37.014Z,91.40
2022-12-25T08:14:07.180Z,91.30
2022-12-25T08:16:34.317Z,91.00
2022-12-25T08:19:01.252Z,90.80
2022-12-25T08:21:27.987Z,90.70
2022-12-25T08:23:54.779Z,90.80
2022-12-25T08:26:22.335Z,90.80
2022-12-25T08:28:49.951Z,90.70
2022-12-25T08:31:24.054Z,90.80
2022-12-25T08:33:52.497Z,90.80
2022-12-25T08:36:19.334Z,90.60
2022-12-25T08:38:46.973Z,90.60
2022-12-25T08:41:14.287Z,90.70
2022-12-25T08:43:41.459Z,90.70
2022-12-25T08:46:08.603Z,90.80
2022-12-25T08:48:35.574Z,90.90
2022-12-25T08:51:02.814Z,90.90
2022-12-25T08:53:29.611Z,90.90
2022-12-25T08:56:06.184Z,91.00
2022-12-25T08:58:33.529Z,91.00
2022-12-25T09:01:00.979Z,91.00
2022-12-25T09:03:28.170Z,91.10
2022-12-25T09:05:55.347Z,91.00
2022-12-25T09:08:22.191Z,91.00
2022-12-25T09:10:49.169Z,90.90
2022-12-25T09:13:16.275Z,91.30
2022-12-25T09:15:43.160Z,91.00
2022-12-25T09:18:09.944Z,90.90
2022-12-25T09:20:36.878Z,90.90
2022-12-25T09:23:08.528Z,90.90
2022-12-25T09:25:38.941Z,90.90
2022-12-25T09:28:05.772Z,91.00
2022-12-25T09:30:32.558Z,90.90
2022-12-25T09:32:59.486Z,90.90
2022-12-25T09:35:26.248Z,90.90
2022-12-25T09:37:53.057Z,90.90
2022-12-25T09:40:21.581Z,90.80
2022-12-25T09:42:48.660Z,90.80
2022-12-25T09:45:27.305Z,90.80
2022-12-25T09:47:55.649Z,90.70
2022-12-25T09:50:34.973Z,90.80
2022-12-25T09:53:07.395Z,90.70
2022-12-25T09:55:36.395Z,90.80
2022-12-25T09:58:08.877Z,90.60
2022-12-25T10:00:38.196Z,90.50
2022-12-25T10:03:05.093Z,90.60
2022-12-25T10:05:34.827Z,90.80
2022-12-25T10:08:01.694Z,90.90
2022-12-25T10:10:40.327Z,90.80
2022-12-25T10:13:19.460Z,90.70
2022-12-25T10:15:52.368Z,90.70
2022-12-25T10:18:29.140Z,90.70
2022-12-25T10:20:57.350Z,90.70
2022-12-25T10:23:53.956Z,90.80
2022-12-25T10:26:25.233Z,90.80
2022-12-25T10:29:07.287Z,90.70
2022-12-25T10:31:35.948Z,90.60
2022-12-25T10:34:03.740Z,90.70
2022-12-25T10:36:31.183Z,90.80
2022-12-25T10:38:58.018Z,90.90
2022-12-25T10:41:43.827Z,91.10
2022-12-25T10:44:20.237Z,91.40
2022-12-25T10:46:55.474Z,91.80
2022-12-25T10:49:24.033Z,92.20
2022-12-25T10:51:50.855Z,92.40
2022-12-25T10:54:38.189Z,92.40
2022-12-25T10:57:16.176Z,92.60
2022-12-25T10:59:45.042Z,92.20
2022-12-25T11:02:17.857Z,92.00
2022-12-25T11:04:44.830Z,91.40
2022-12-25T11:07:17.427Z,91.20
2022-12-25T11:10:06.031Z,91.00
2022-12-25T11:12:36.021Z,91.20
2022-12-25T11:15:26.145Z,91.00
2022-12-25T11:17:52.903Z,91.00
2022-12-25T11:20:20.316Z,91.00
2022-12-25T11:22:51.889Z,91.10
2022-12-25T11:25:22.931Z,91.20
2022-12-25T11:28:03.081Z,91.30
2022-12-25T11:30:31.330Z,91.40
2022-12-25T11:33:02.819Z,91.70
2022-12-25T11:35:31.519Z,91.90
2022-12-25T11:37:58.344Z,92.20
2022-12-25T11:40:30.795Z,92.50
2022-12-25T11:43:12.226Z,92.70
2022-12-25T11:45:42.029Z,92.40
2022-12-25T11:48:14.639Z,92.10
2022-12-25T11:50:43.534Z,91.60
2022-12-25T11:53:29.177Z,91.40
2022-12-25T11:55:58.784Z,91.40
2022-12-25T11:58:39.693Z,91.30
2022-12-25T12:01:14.863Z,91.20
2022-12-25T12:03:49.370Z,91.00
2022-12-25T12:06:39.228Z,90.90
2022-12-25T12:09:17.579Z,91.10
2022-12-25T12:11:48.159Z,91.10
2022-12-25T12:14:18.243Z,91.30
2022-12-25T12:16:45.476Z,91.50
2022-12-25T12:19:28.842Z,91.90
2022-12-25T12:21:56.830Z,92.30
2022-12-25T12:24:25.103Z,92.50
2022-12-25T12:27:02.808Z,92.80
2022-12-25T12:29:31.298Z,92.90
2022-12-25T12:32:01.415Z,93.10
2022-12-25T12:34:36.888Z,92.90
2022-12-25T12:37:32.682Z,92.30
2022-12-25T12:39:59.787Z,92.10
2022-12-25T12:42:28.876Z,91.70
2022-12-25T12:44:56.957Z,91.40
2022-12-25T12:47:28.663Z,91.30
2022-12-25T12:49:59.017Z,91.40
2022-12-25T12:52:33.513Z,91.40
2022-12-25T12:55:00.305Z,91.30
2022-12-25T12:57:29.919Z,91.40
2022-12-25T12:59:59.003Z,91.30
2022-12-25T13:02:29.965Z,91.10
2022-12-25T13:05:01.178Z,91.30
2022-12-25T13:07:35.403Z,91.70
2022-12-25T13:10:09.685Z,92.00
2022-12-25T13:12:36.872Z,92.30
2022-12-25T13:15:04.083Z,92.40
2022-12-25T13:17:30.912Z,92.60
2022-12-25T13:19:58.662Z,92.90
2022-12-25T13:22:30.104Z,92.70
2022-12-25T13:24:58.553Z,92.10
2022-12-25T13:27:27.014Z,91.70
2022-12-25T13:29:53.849Z,91.50
2022-12-25T13:32:23.409Z,91.40
2022-12-25T13:34:50.835Z,91.20
2022-12-25T13:37:24.831Z,91.20
2022-12-25T13:39:51.837Z,91.00
2022-12-25T13:42:29.947Z,91.10
2022-12-25T13:44:56.651Z,91.20
2022-12-25T13:47:25.221Z,91.30
2022-12-25T13:49:55.902Z,91.30
2022-12-25T13:52:24.271Z,91.60
2022-12-25T13:55:11.333Z,92.10
2022-12-25T13:57:39.884Z,92.40
2022-12-25T14:00:16.237Z,92.70
2022-12-25T14:02:43.210Z,92.80
2022-12-25T14:05:23.364Z,93.00
2022-12-25T14:07:53.566Z,93.10
2022-12-25T14:10:21.504Z,92.80
2022-12-25T14:12:50.320Z,92.40
2022-12-25T14:15:21.599Z,92.00
2022-12-25T14:17:49.242Z,91.90
2022-12-25T14:20:42.425Z,91.80
2022-12-25T14:23:14.661Z,91.70
2022-12-25T14:25:43.317Z,91.70
2022-12-25T14:28:18.146Z,91.60
2022-12-25T14:30:45.367Z,91.50
2022-12-25T14:33:16.091Z,91.50
2022-12-25T14:35:43.230Z,91.40
2022-12-25T14:38:15.879Z,91.40
2022-12-25T14:40:45.390Z,91.50
2022-12-25T14:43:23.855Z,91.40
2022-12-25T14:45:57.954Z,91.70
2022-12-25T14:48:26.528Z,91.90
2022-12-25T14:50:57.120Z,92.40
2022-12-25T14:53:28.476Z,92.60
2022-12-25T14:55:55.356Z,92.80
2022-12-25T14:58:23.344Z,92.90
2022-12-25T15:01:13.236Z,93.20
2022-12-25T15:03:40.165Z,92.90
2022-12-25T15:06:11.997Z,92.40
2022-12-25T15:08:40.177Z,92.00
2022-12-25T15:11:06.931Z,91.60
2022-12-25T15:13:34.336Z,91.50
2022-12-25T15:16:12.241Z,91.50
2022-12-25T15:18:41.136Z,91.50
2022-12-25T15:21:15.719Z,91.50
2022-12-25T15:23:42.559Z,91.40
2022-12-25T15:26:12.745Z,91.40
2022-12-25T15:28:39.759Z,91.40
2022-12-25T15:31:15.165Z,91.30
2022-12-25T15:33:44.232Z,91.30
2022-12-25T15:36:11.300Z,91.30
2022-12-25T15:38:38.996Z,91.50
2022-12-25T15:41:12.156Z,91.70
2022-12-25T15:43:40.959Z,92.00
2022-12-25T15:46:08.988Z,92.40
2022-12-25T15:48:35.851Z,92.60
2022-12-25T15:51:03.185Z,92.80
2022-12-25T15:53:29.990Z,92.90
2022-12-25T15:55:57.243Z,93.10
2022-12-25T15:58:24.139Z,93.30
2022-12-25T16:00:50.890Z,92.90
2022-12-25T16:03:18.055Z,92.40
2022-12-25T16:05:44.843Z,92.10
2022-12-25T16:08:11.647Z,91.90
2022-12-25T16:10:40.316Z,91.70
2022-12-25T16:13:07.217Z,91.60
2022-12-25T16:15:33.974Z,91.60
2022-12-25T16:18:00.908Z,91.50
2022-12-25T16:20:27.675Z,91.40
2022-12-25T16:22:54.421Z,91.40
2022-12-25T16:25:21.694Z,91.50
2022-12-25T16:27:48.689Z,91.40
2022-12-25T16:30:16.577Z,91.40
2022-12-25T16:32:44.231Z,91.40
2022-12-25T16:35:11.586Z,91.50
2022-12-25T16:37:38.425Z,91.60
2022-12-25T16:40:05.761Z,91.80
2022-12-25T16:42:32.545Z,92.20
2022-12-25T16:44:59.321Z,92.60
2022-12-25T16:47:26.802Z,92.90
2022-12-25T16:49:53.648Z,93.00
2022-12-25T16:52:20.509Z,93.10
2022-12-25T16:54:47.539Z,92.90
2022-12-25T16:57:14.679Z,92.60
2022-12-25T16:59:41.798Z,92.30
2022-12-25T17:02:10.030Z,91.90
2022-12-25T17:04:36.840Z,91.80
2022-12-25T17:07:03.548Z,91.90
2022-12-25T17:09:31.489Z,91.50
2022-12-25T17:11:58.358Z,91.30
2022-12-25T17:14:25.329Z,91.10
2022-12-25T17:16:52.395Z,91.20
2022-12-25T17:19:20.026Z,91.20
2022-12-25T17:21:47.328Z,91.30
2022-12-25T17:24:14.477Z,91.30
2022-12-25T17:26:41.724Z,91.20
2022-12-25T17:29:08.673Z,91.20
2022-12-25T17:31:35.745Z,91.30
2022-12-25T17:34:03.672Z,91.40
2022-12-25T17:36:30.901Z,91.80
2022-12-25T17:39:01.442Z,92.10
2022-12-25T17:41:28.341Z,92.20
2022-12-25T17:43:55.097Z,92.60
2022-12-25T17:46:23.676Z,92.70
2022-12-25T17:48:51.060Z,92.80
2022-12-25T17:51:19.376Z,92.80
2022-12-25T17:53:48.208Z,92.20
2022-12-25T17:56:15.567Z,91.70
2022-12-25T17:58:42.903Z,91.50
2022-12-25T18:01:14.310Z,91.40
2022-12-25T18:03:41.854Z,91.30
2022-12-25T18:06:10.083Z,91.30
2022-12-25T18:08:39.497Z,91.40
2022-12-25T18:11:07.900Z,91.40
2022-12-25T18:13:34.699Z,91.40
2022-12-25T18:16:05.990Z,91.40
2022-12-25T18:18:33.260Z,91.50
2022-12-25T18:21:00.098Z,91.90
2022-12-25T18:23:26.912Z,92.20
2022-12-25T18:25:54.179Z,92.30
2022-12-25T18:28:21.081Z,92.50
2022-12-25T18:30:48.256Z,92.60
2022-12-25T18:33:15.091Z,92.80
2022-12-25T18:35:42.443Z,93.10
2022-12-25T18:38:10.907Z,93.10
2022-12-25T18:40:44.670Z,93.10
2022-12-25T18:43:12.009Z,93.20
2022-12-25T18:45:38.943Z,93.20
2022-12-25T18:48:06.451Z,92.80
2022-12-25T18:50:37.175Z,92.30
2022-12-25T18:53:04.705Z,92.00
2022-12-25T18:55:31.688Z,91.80
2022-12-25T18:57:58.673Z,91.60
2022-12-25T19:00:25.822Z,91.40
2022-12-25T19:02:59.471Z,91.70
2022-12-25T19:05:26.679Z,91.40
2022-12-25T19:07:53.453Z,91.60
2022-12-25T19:10:20.568Z,91.70
2022-12-25T19:12:47.726Z,92.60
2022-12-25T19:15:14.752Z,92.50
2022-12-25T19:17:41.688Z,92.90
2022-12-25T19:20:08.788Z,92.80
2022-12-25T19:22:35.567Z,92.70
2022-12-25T19:25:02.630Z,93.00
2022-12-25T19:27:29.429Z,92.60
2022-12-25T19:29:56.288Z,92.20
2022-12-25T19:32:23.768Z,91.90
2022-12-25T19:34:50.530Z,91.80
2022-12-25T19:37:17.345Z,91.60
2022-12-25T19:39:46.947Z,91.50
2022-12-25T19:42:14.160Z,91.60
2022-12-25T19:44:41.011Z,91.70
2022-12-25T19:47:09.239Z,92.20
2022-12-25T19:49:36.251Z,92.50
2022-12-25T19:52:03.143Z,92.60
2022-12-25T19:54:29.995Z,92.70
2022-12-25T19:56:56.786Z,92.90
2022-12-25T19:59:23.683Z,93.00
2022-12-25T20:01:50.660Z,93.20
2022-12-25T20:04:18.324Z,93.20
2022-12-25T20:06:45.193Z,93.30
2022-12-25T20:09:13.932Z,93.30
2022-12-25T20:11:40.803Z,93.50
2022-12-25T20:14:07.947Z,93.40
2022-12-25T20:16:37.017Z,93.50
2022-12-25T20:19:04.219Z,93.40
2022-12-25T20:21:31.187Z,93.50
2022-12-25T20:23:58.212Z,93.60
2022-12-25T20:26:27.342Z,93.60
2022-12-25T20:28:54.299Z,93.60
2022-12-25T20:31:22.798Z,93.70
2022-12-25T20:33:49.656Z,93.80
2022-12-25T20:36:18.413Z,93.80
2022-12-25T20:38:45.387Z,93.70
2022-12-25T20:41:29.830Z,93.90
2022-12-25T20:43:57.675Z,93.90
2022-12-25T20:46:25.139Z,93.70
2022-12-25T20:48:52.961Z,93.70
2022-12-25T20:51:24.679Z,93.70
2022-12-25T20:53:51.773Z,93.70
2022-12-25T20:56:19.202Z,93.90
2022-12-25T20:58:46.300Z,94.10
2022-12-25T21:01:17.250Z,94.10
2022-12-25T21:03:44.733Z,94.10
2022-12-25T21:06:11.835Z,94.00
2022-12-25T21:08:38.983Z,94.00
2022-12-25T21:11:06.151Z,94.20
2022-12-25T21:13:34.169Z,93.80
2022-12-25T21:16:01.170Z,93.50
2022-12-25T21:18:28.355Z,93.20
2022-12-25T21:20:56.746Z,93.00
2022-12-25T21:23:25.771Z,92.80
2022-12-25T21:25:52.912Z,92.70
2022-12-25T21:28:20.370Z,92.60
2022-12-25T21:30:47.209Z,92.50
2022-12-25T21:33:33.064Z,92.50
2022-12-25T21:36:06.735Z,92.80
2022-12-25T21:38:33.951Z,93.10
2022-12-25T21:41:05.115Z,93.40
2022-12-25T21:43:32.683Z,93.30
2022-12-25T21:46:04.473Z,93.40
2022-12-25T21:48:31.540Z,93.60
2022-12-25T21:51:21.511Z,93.60
2022-12-25T21:53:48.316Z,93.70
2022-12-25T21:56:15.043Z,93.80
2022-12-25T21:58:42.069Z,93.80
2022-12-25T22:01:09.050Z,93.80
2022-12-25T22:03:35.899Z,93.90
2022-12-25T22:06:21.781Z,93.90
2022-12-25T22:08:48.743Z,94.00
2022-12-25T22:11:34.373Z,94.10
2022-12-25T22:14:19.468Z,94.00
2022-12-25T22:17:25.035Z,94.10
2022-12-25T22:19:51.841Z,94.00
2022-12-25T22:22:21.143Z,94.40
2022-12-25T22:24:48.584Z,94.10
2022-12-25T22:27:15.940Z,94.10
2022-12-25T22:29:42.948Z,94.40
2022-12-25T22:32:10.336Z,94.40
2022-12-25T22:34:37.278Z,94.20
2022-12-25T22:37:04.329Z,93.80
2022-12-25T22:39:32.375Z,93.50
2022-12-25T22:42:00.243Z,93.30
2022-12-25T22:44:28.462Z,93.20
2022-12-25T22:46:55.684Z,93.00
2022-12-25T22:49:22.449Z,92.90
2022-12-25T22:51:49.636Z,92.80
2022-12-25T22:54:17.538Z,92.70
2022-12-25T22:56:45.202Z,93.10
2022-12-25T22:59:12.947Z,93.30
2022-12-25T23:01:39.940Z,93.40
2022-12-25T23:04:07.817Z,93.50
2022-12-25T23:06:34.676Z,93.70
2022-12-25T23:09:01.837Z,93.70
2022-12-25T23:11:28.627Z,93.90
2022-12-25T23:14:14.053Z,94.00
2022-12-25T23:16:40.801Z,94.10
2022-12-25T23:19:26.129Z,94.10
2022-12-25T23:22:11.275Z,94.10
2022-12-25T23:24:56.431Z,94.20
2022-12-25T23:27:23.219Z,94.20
2022-12-25T23:29:49.970Z,94.20
2022-12-25T23:32:18.262Z,94.30
2022-12-25T23:34:45.410Z,94.30
2022-12-25T23:37:12.310Z,94.30
2022-12-25T23:39:39.146Z,94.30
2022-12-25T23:42:05.972Z,94.30
2022-12-25T23:44:32.773Z,94.30
2022-12-25T23:46:59.945Z,94.30
2022-12-25T23:49:27.198Z,94.50
2022-12-25T23:51:54.543Z,94.40
2022-12-25T23:54:23.544Z,94.00
2022-12-25T23:56:50.693Z,93.50
2022-12-25T23:59:17.427Z,93.10
